sensor_id;sensor_type;location;lat;lon;timestamp;temperature;humidity
69418;DHT22;56610;48.872;2.400;2023-02-07T00:00:30;8.20;99.90
69418;DHT22;56610;48.872;2.400;2023-02-07T00:02:55;8.30;99.90
69418;DHT22;56610;48.872;2.400;2023-02-07T00:05:22;8.20;99.90
69418;DHT22;56610;48.872;2.400;2023-02-07T00:07:48;8.20;99.90
69418;DHT22;56610;48.872;2.400;2023-02-07T00:10:15;8.30;99.90
69418;DHT22;56610;48.872;2.400;2023-02-07T00:12:41;8.20;99.90
69418;DHT22;56610;48.872;2.400;2023-02-07T00:15:07;8.20;99.90
69418;DHT22;56610;48.872;2.400;2023-02-07T00:17:33;8.20;99.90
69418;DHT22;56610;48.872;2.400;2023-02-07T00:19:59;8.20;99.90
69418;DHT22;56610;48.872;2.400;2023-02-07T00:22:24;8.20;99.90
69418;DHT22;56610;48.872;2.400;2023-02-07T00:24:50;8.20;99.90
69418;DHT22;56610;48.872;2.400;2023-02-07T00:27:16;8.20;99.90
69418;DHT22;56610;48.872;2.400;2023-02-07T00:29:42;8.60;99.90
69418;DHT22;56610;48.872;2.400;2023-02-07T00:32:07;8.60;99.90
69418;DHT22;56610;48.872;2.400;2023-02-07T00:34:33;8.50;99.90
69418;DHT22;56610;48.872;2.400;2023-02-07T00:37:01;8.70;99.90
69418;DHT22;56610;48.872;2.400;2023-02-07T00:39:27;8.60;99.90
69418;DHT22;56610;48.872;2.400;2023-02-07T00:41:52;8.60;99.90
69418;DHT22;56610;48.872;2.400;2023-02-07T00:44:18;8.70;99.90
69418;DHT22;56610;48.872;2.400;2023-02-07T00:46:44;8.70;99.90
69418;DHT22;56610;48.872;2.400;2023-02-07T00:49:10;8.70;99.90
69418;DHT22;56610;48.872;2.400;2023-02-07T00:51:36;8.40;99.90
69418;DHT22;56610;48.872;2.400;2023-02-07T00:54:02;8.20;99.90
69418;DHT22;56610;48.872;2.400;2023-02-07T00:56:29;8.10;99.90
69418;DHT22;56610;48.872;2.400;2023-02-07T00:58:55;8.10;99.90
69418;DHT22;56610;48.872;2.400;2023-02-07T01:01:21;8.30;99.90
69418;DHT22;56610;48.872;2.400;2023-02-07T01:03:49;8.30;99.90
69418;DHT22;56610;48.872;2.400;2023-02-07T01:06:15;8.30;99.90
69418;DHT22;56610;48.872;2.400;2023-02-07T01:08:40;8.50;99.90
69418;DHT22;56610;48.872;2.400;2023-02-07T01:11:08;8.50;99.90
69418;DHT22;56610;48.872;2.400;2023-02-07T01:13:35;8.30;99.90
69418;DHT22;56610;48.872;2.400;2023-02-07T01:16:00;8.30;99.90
69418;DHT22;56610;48.872;2.400;2023-02-07T01:18:26;8.30;99.90
69418;DHT22;56610;48.872;2.400;2023-02-07T01:20:52;8.20;99.90
69418;DHT22;56610;48.872;2.400;2023-02-07T01:23:18;8.20;99.90
69418;DHT22;56610;48.872;2.400;2023-02-07T01:25:45;8.20;99.90
69418;DHT22;56610;48.872;2.400;2023-02-07T01:28:14;8.20;99.90
69418;DHT22;56610;48.872;2.400;2023-02-07T01:30:41;8.00;99.90
69418;DHT22;56610;48.872;2.400;2023-02-07T01:33:07;7.70;99.90
69418;DHT22;56610;48.872;2.400;2023-02-07T01:35:33;7.60;99.90
69418;DHT22;56610;48.872;2.400;2023-02-07T01:37:59;7.60;99.90
69418;DHT22;56610;48.872;2.400;2023-02-07T01:40:28;7.80;99.90
69418;DHT22;56610;48.872;2.400;2023-02-07T01:42:54;8.00;99.90
69418;DHT22;56610;48.872;2.400;2023-02-07T01:45:29;7.80;99.90
69418;DHT22;56610;48.872;2.400;2023-02-07T01:48:07;7.80;99.90
69418;DHT22;56610;48.872;2.400;2023-02-07T01:50:35;7.80;99.90
69418;DHT22;56610;48.872;2.400;2023-02-07T01:53:03;7.80;99.90
69418;DHT22;56610;48.872;2.400;2023-02-07T01:55:34;7.80;99.90
69418;DHT22;56610;48.872;2.400;2023-02-07T01:58:03;7.80;99.90
69418;DHT22;56610;48.872;2.400;2023-02-07T02:00:29;7.50;99.90
69418;DHT22;56610;48.872;2.400;2023-02-07T02:02:55;7.60;99.90
69418;DHT22;56610;48.872;2.400;2023-02-07T02:05:21;7.60;99.90
69418;DHT22;56610;48.872;2.400;2023-02-07T02:07:47;7.70;99.90
69418;DHT22;56610;48.872;2.400;2023-02-07T02:10:19;7.60;99.90
69418;DHT22;56610;48.872;2.400;2023-02-07T02:16:03;7.70;99.90
69418;DHT22;56610;48.872;2.400;2023-02-07T02:18:46;7.80;99.90
69418;DHT22;56610;48.872;2.400;2023-02-07T02:21:47;8.00;99.90
69418;DHT22;56610;48.872;2.400;2023-02-07T02:46:06;8.00;99.90
69418;DHT22;56610;48.872;2.400;2023-02-07T02:48:35;7.90;99.90
69418;DHT22;56610;48.872;2.400;2023-02-07T02:51:01;7.60;99.90
69418;DHT22;56610;48.872;2.400;2023-02-07T02:53:28;7.60;99.90
69418;DHT22;56610;48.872;2.400;2023-02-07T03:01:41;8.00;99.90
69418;DHT22;56610;48.872;2.400;2023-02-07T03:09:53;7.80;99.90
69418;DHT22;56610;48.872;2.400;2023-02-07T03:12:29;7.50;99.90
69418;DHT22;56610;48.872;2.400;2023-02-07T03:15:16;7.70;99.90
69418;DHT22;56610;48.872;2.400;2023-02-07T03:21:02;7.30;99.90
69418;DHT22;56610;48.872;2.400;2023-02-07T03:23:31;7.00;99.90
69418;DHT22;56610;48.872;2.400;2023-02-07T03:25:59;6.90;99.90
69418;DHT22;56610;48.872;2.400;2023-02-07T03:28:26;6.80;99.90
69418;DHT22;56610;48.872;2.400;2023-02-07T03:30:54;6.90;99.90
69418;DHT22;56610;48.872;2.400;2023-02-07T03:33:22;6.80;99.90
69418;DHT22;56610;48.872;2.400;2023-02-07T03:35:52;6.70;99.90
69418;DHT22;56610;48.872;2.400;2023-02-07T03:38:18;6.60;99.90
69418;DHT22;56610;48.872;2.400;2023-02-07T03:40:48;6.60;99.90
69418;DHT22;56610;48.872;2.400;2023-02-07T03:43:23;6.90;99.90
69418;DHT22;56610;48.872;2.400;2023-02-07T03:45:49;7.10;99.90
69418;DHT22;56610;48.872;2.400;2023-02-07T03:48:15;7.10;99.90
69418;DHT22;56610;48.872;2.400;2023-02-07T03:50:41;7.30;99.90
69418;DHT22;56610;48.872;2.400;2023-02-07T03:53:07;7.20;99.90
69418;DHT22;56610;48.872;2.400;2023-02-07T03:55:33;7.40;99.90
69418;DHT22;56610;48.872;2.400;2023-02-07T03:57:58;7.60;99.90
69418;DHT22;56610;48.872;2.400;2023-02-07T04:00:24;7.70;99.90
69418;DHT22;56610;48.872;2.400;2023-02-07T04:02:50;7.70;99.90
69418;DHT22;56610;48.872;2.400;2023-02-07T04:05:17;7.80;99.90
69418;DHT22;56610;48.872;2.400;2023-02-07T04:07:42;7.80;99.90
69418;DHT22;56610;48.872;2.400;2023-02-07T04:10:09;7.80;99.90
69418;DHT22;56610;48.872;2.400;2023-02-07T04:12:35;7.70;99.90
69418;DHT22;56610;48.872;2.400;2023-02-07T04:15:01;7.60;99.90
69418;DHT22;56610;48.872;2.400;2023-02-07T04:17:27;7.60;99.90
69418;DHT22;56610;48.872;2.400;2023-02-07T04:19:53;7.70;99.90
69418;DHT22;56610;48.872;2.400;2023-02-07T04:22:19;7.80;99.90
69418;DHT22;56610;48.872;2.400;2023-02-07T04:24:45;7.80;99.90
69418;DHT22;56610;48.872;2.400;2023-02-07T04:27:11;7.70;99.90
69418;DHT22;56610;48.872;2.400;2023-02-07T04:29:36;7.70;99.90
69418;DHT22;56610;48.872;2.400;2023-02-07T04:32:02;7.50;99.90
69418;DHT22;56610;48.872;2.400;2023-02-07T04:34:28;7.50;99.90
69418;DHT22;56610;48.872;2.400;2023-02-07T04:36:54;7.40;99.90
69418;DHT22;56610;48.872;2.400;2023-02-07T04:39:19;7.40;99.90
69418;DHT22;56610;48.872;2.400;2023-02-07T04:41:45;7.20;99.90
69418;DHT22;56610;48.872;2.400;2023-02-07T04:44:11;7.20;99.90
69418;DHT22;56610;48.872;2.400;2023-02-07T04:46:36;7.10;99.90
69418;DHT22;56610;48.872;2.400;2023-02-07T04:49:02;7.20;99.90
69418;DHT22;56610;48.872;2.400;2023-02-07T04:51:29;7.20;99.90
69418;DHT22;56610;48.872;2.400;2023-02-07T04:53:54;7.20;99.90
69418;DHT22;56610;48.872;2.400;2023-02-07T04:56:21;7.10;99.90
69418;DHT22;56610;48.872;2.400;2023-02-07T04:58:46;7.10;99.90
69418;DHT22;56610;48.872;2.400;2023-02-07T05:01:12;7.30;99.90
69418;DHT22;56610;48.872;2.400;2023-02-07T05:03:38;7.40;99.90
69418;DHT22;56610;48.872;2.400;2023-02-07T05:06:03;7.20;99.90
69418;DHT22;56610;48.872;2.400;2023-02-07T05:08:29;7.10;99.90
69418;DHT22;56610;48.872;2.400;2023-02-07T05:10:55;7.00;99.90
69418;DHT22;56610;48.872;2.400;2023-02-07T05:13:21;6.70;99.90
69418;DHT22;56610;48.872;2.400;2023-02-07T05:15:47;6.80;99.90
69418;DHT22;56610;48.872;2.400;2023-02-07T05:18:13;6.80;99.90
69418;DHT22;56610;48.872;2.400;2023-02-07T05:20:39;6.80;99.90
69418;DHT22;56610;48.872;2.400;2023-02-07T05:23:04;6.70;99.90
69418;DHT22;56610;48.872;2.400;2023-02-07T05:25:30;6.80;99.90
69418;DHT22;56610;48.872;2.400;2023-02-07T05:27:55;7.00;99.90
69418;DHT22;56610;48.872;2.400;2023-02-07T05:30:21;6.90;99.90
69418;DHT22;56610;48.872;2.400;2023-02-07T05:32:47;6.80;99.90
69418;DHT22;56610;48.872;2.400;2023-02-07T05:35:44;6.70;99.90
69418;DHT22;56610;48.872;2.400;2023-02-07T05:38:12;6.60;99.90
69418;DHT22;56610;48.872;2.400;2023-02-07T05:40:39;6.70;99.90
69418;DHT22;56610;48.872;2.400;2023-02-07T05:43:05;6.70;99.90
69418;DHT22;56610;48.872;2.400;2023-02-07T05:45:32;6.80;99.90
69418;DHT22;56610;48.872;2.400;2023-02-07T05:47:58;6.60;99.90
69418;DHT22;56610;48.872;2.400;2023-02-07T05:50:24;6.60;99.90
69418;DHT22;56610;48.872;2.400;2023-02-07T05:52:49;6.80;99.90
69418;DHT22;56610;48.872;2.400;2023-02-07T05:55:15;7.00;99.90
69418;DHT22;56610;48.872;2.400;2023-02-07T05:57:42;6.90;99.90
69418;DHT22;56610;48.872;2.400;2023-02-07T06:00:10;6.90;99.90
69418;DHT22;56610;48.872;2.400;2023-02-07T06:02:40;6.70;99.90
69418;DHT22;56610;48.872;2.400;2023-02-07T06:05:08;6.60;99.90
69418;DHT22;56610;48.872;2.400;2023-02-07T06:07:35;6.50;99.90
69418;DHT22;56610;48.872;2.400;2023-02-07T06:10:02;6.50;99.90
69418;DHT22;56610;48.872;2.400;2023-02-07T06:12:28;6.70;99.90
69418;DHT22;56610;48.872;2.400;2023-02-07T06:14:53;6.70;99.90
69418;DHT22;56610;48.872;2.400;2023-02-07T06:17:19;6.80;99.90
69418;DHT22;56610;48.872;2.400;2023-02-07T06:19:44;6.70;99.90
69418;DHT22;56610;48.872;2.400;2023-02-07T06:22:10;6.70;99.90
69418;DHT22;56610;48.872;2.400;2023-02-07T06:24:36;6.80;99.90
69418;DHT22;56610;48.872;2.400;2023-02-07T06:27:01;7.00;99.90
69418;DHT22;56610;48.872;2.400;2023-02-07T06:29:27;7.00;99.90
69418;DHT22;56610;48.872;2.400;2023-02-07T06:31:52;6.70;99.90
69418;DHT22;56610;48.872;2.400;2023-02-07T06:34:18;6.60;99.90
69418;DHT22;56610;48.872;2.400;2023-02-07T06:36:44;6.50;99.90
69418;DHT22;56610;48.872;2.400;2023-02-07T06:39:09;6.60;99.90
69418;DHT22;56610;48.872;2.400;2023-02-07T06:41:35;6.60;99.90
69418;DHT22;56610;48.872;2.400;2023-02-07T06:44:01;6.60;99.90
69418;DHT22;56610;48.872;2.400;2023-02-07T06:46:26;6.50;99.90
69418;DHT22;56610;48.872;2.400;2023-02-07T06:48:52;6.40;99.90
69418;DHT22;56610;48.872;2.400;2023-02-07T06:51:18;6.30;99.90
69418;DHT22;56610;48.872;2.400;2023-02-07T06:53:43;6.50;99.90
69418;DHT22;56610;48.872;2.400;2023-02-07T06:56:09;6.40;99.90
69418;DHT22;56610;48.872;2.400;2023-02-07T06:58:34;6.30;99.90
69418;DHT22;56610;48.872;2.400;2023-02-07T07:01:04;6.40;99.90
69418;DHT22;56610;48.872;2.400;2023-02-07T07:03:29;6.20;99.90
69418;DHT22;56610;48.872;2.400;2023-02-07T07:05:56;6.20;99.90
69418;DHT22;56610;48.872;2.400;2023-02-07T07:08:23;6.10;99.90
69418;DHT22;56610;48.872;2.400;2023-02-07T07:10:49;5.80;99.90
69418;DHT22;56610;48.872;2.400;2023-02-07T07:13:14;5.80;99.90
69418;DHT22;56610;48.872;2.400;2023-02-07T07:15:40;5.60;99.90
69418;DHT22;56610;48.872;2.400;2023-02-07T07:18:06;5.60;99.90
69418;DHT22;56610;48.872;2.400;2023-02-07T07:20:31;5.70;99.90
69418;DHT22;56610;48.872;2.400;2023-02-07T07:22:57;5.50;99.90
69418;DHT22;56610;48.872;2.400;2023-02-07T07:25:22;5.60;99.90
69418;DHT22;56610;48.872;2.400;2023-02-07T07:27:48;5.50;99.90
69418;DHT22;56610;48.872;2.400;2023-02-07T07:30:14;5.40;99.90
69418;DHT22;56610;48.872;2.400;2023-02-07T07:32:39;5.50;99.90
69418;DHT22;56610;48.872;2.400;2023-02-07T07:35:05;5.30;99.90
69418;DHT22;56610;48.872;2.400;2023-02-07T07:37:31;5.10;99.90
69418;DHT22;56610;48.872;2.400;2023-02-07T07:39:57;5.00;99.90
69418;DHT22;56610;48.872;2.400;2023-02-07T07:42:22;5.10;99.90
69418;DHT22;56610;48.872;2.400;2023-02-07T07:44:48;5.10;99.90
69418;DHT22;56610;48.872;2.400;2023-02-07T07:47:14;5.30;99.90
69418;DHT22;56610;48.872;2.400;2023-02-07T07:49:39;5.10;99.90
69418;DHT22;56610;48.872;2.400;2023-02-07T07:52:05;5.10;99.90
69418;DHT22;56610;48.872;2.400;2023-02-07T07:54:31;5.10;99.90
69418;DHT22;56610;48.872;2.400;2023-02-07T07:56:57;5.00;99.90
69418;DHT22;56610;48.872;2.400;2023-02-07T07:59:22;5.00;99.90
69418;DHT22;56610;48.872;2.400;2023-02-07T08:01:48;5.10;99.90
69418;DHT22;56610;48.872;2.400;2023-02-07T08:04:13;5.10;99.90
69418;DHT22;56610;48.872;2.400;2023-02-07T08:06:39;5.20;99.90
69418;DHT22;56610;48.872;2.400;2023-02-07T08:09:05;5.10;99.90
69418;DHT22;56610;48.872;2.400;2023-02-07T08:11:30;5.10;99.90
69418;DHT22;56610;48.872;2.400;2023-02-07T08:13:56;5.10;99.90
69418;DHT22;56610;48.872;2.400;2023-02-07T08:16:21;5.00;99.90
69418;DHT22;56610;48.872;2.400;2023-02-07T08:18:47;5.30;99.90
69418;DHT22;56610;48.872;2.400;2023-02-07T08:21:13;5.40;99.90
69418;DHT22;56610;48.872;2.400;2023-02-07T08:23:38;5.30;99.90
69418;DHT22;56610;48.872;2.400;2023-02-07T08:26:04;5.30;99.90
69418;DHT22;56610;48.872;2.400;2023-02-07T08:28:31;5.30;99.90
69418;DHT22;56610;48.872;2.400;2023-02-07T08:31:01;5.40;99.90
69418;DHT22;56610;48.872;2.400;2023-02-07T08:33:27;5.30;99.90
69418;DHT22;56610;48.872;2.400;2023-02-07T08:35:53;5.40;99.90
69418;DHT22;56610;48.872;2.400;2023-02-07T08:38:18;5.50;99.90
69418;DHT22;56610;48.872;2.400;2023-02-07T08:40:44;5.40;99.90
69418;DHT22;56610;48.872;2.400;2023-02-07T08:43:11;5.50;99.90
69418;DHT22;56610;48.872;2.400;2023-02-07T08:45:44;5.60;99.90
69418;DHT22;56610;48.872;2.400;2023-02-07T08:48:10;5.60;99.90
69418;DHT22;56610;48.872;2.400;2023-02-07T08:50:36;5.70;99.90
69418;DHT22;56610;48.872;2.400;2023-02-07T08:53:03;5.90;99.90
69418;DHT22;56610;48.872;2.400;2023-02-07T08:55:29;5.60;99.90
69418;DHT22;56610;48.872;2.400;2023-02-07T08:57:55;5.60;99.90
69418;DHT22;56610;48.872;2.400;2023-02-07T09:00:41;5.70;99.90
69418;DHT22;56610;48.872;2.400;2023-02-07T09:03:08;5.50;99.90
69418;DHT22;56610;48.872;2.400;2023-02-07T09:05:34;5.60;99.90
69418;DHT22;56610;48.872;2.400;2023-02-07T09:08:00;5.60;99.90
69418;DHT22;56610;48.872;2.400;2023-02-07T09:10:27;5.60;99.90
69418;DHT22;56610;48.872;2.400;2023-02-07T09:12:52;5.60;99.90
69418;DHT22;56610;48.872;2.400;2023-02-07T09:15:18;5.70;99.90
69418;DHT22;56610;48.872;2.400;2023-02-07T09:17:43;5.80;99.90
69418;DHT22;56610;48.872;2.400;2023-02-07T09:20:10;5.80;99.90
69418;DHT22;56610;48.872;2.400;2023-02-07T09:22:36;6.00;99.90
69418;DHT22;56610;48.872;2.400;2023-02-07T09:25:21;6.10;99.90
69418;DHT22;56610;48.872;2.400;2023-02-07T09:27:47;6.10;99.90
69418;DHT22;56610;48.872;2.400;2023-02-07T09:30:14;6.30;99.90
69418;DHT22;56610;48.872;2.400;2023-02-07T09:32:39;6.50;99.90
69418;DHT22;56610;48.872;2.400;2023-02-07T09:35:05;6.40;99.90
69418;DHT22;56610;48.872;2.400;2023-02-07T09:37:33;6.30;99.90
69418;DHT22;56610;48.872;2.400;2023-02-07T09:39:59;6.30;99.90
69418;DHT22;56610;48.872;2.400;2023-02-07T09:45:28;6.30;99.90
69418;DHT22;56610;48.872;2.400;2023-02-07T09:48:02;6.50;99.90
69418;DHT22;56610;48.872;2.400;2023-02-07T09:50:33;6.50;99.90
69418;DHT22;56610;48.872;2.400;2023-02-07T09:53:16;6.40;99.90
69418;DHT22;56610;48.872;2.400;2023-02-07T09:55:50;6.50;99.90
69418;DHT22;56610;48.872;2.400;2023-02-07T09:58:34;6.60;99.90
69418;DHT22;56610;48.872;2.400;2023-02-07T10:01:14;6.70;99.90
69418;DHT22;56610;48.872;2.400;2023-02-07T10:03:50;6.90;99.90
69418;DHT22;56610;48.872;2.400;2023-02-07T10:06:24;7.00;99.90
69418;DHT22;56610;48.872;2.400;2023-02-07T10:08:54;7.10;99.90
69418;DHT22;56610;48.872;2.400;2023-02-07T10:19:42;7.10;99.90
69418;DHT22;56610;48.872;2.400;2023-02-07T10:22:15;7.20;99.90
69418;DHT22;56610;48.872;2.400;2023-02-07T10:30:42;7.40;99.90
69418;DHT22;56610;48.872;2.400;2023-02-07T10:35:39;7.50;99.90
69418;DHT22;56610;48.872;2.400;2023-02-07T10:40:46;7.60;99.90
69418;DHT22;56610;48.872;2.400;2023-02-07T10:43:27;7.70;99.90
69418;DHT22;56610;48.872;2.400;2023-02-07T10:45:57;7.70;99.90
69418;DHT22;56610;48.872;2.400;2023-02-07T10:48:23;7.70;99.90
69418;DHT22;56610;48.872;2.400;2023-02-07T10:50:49;7.90;99.90
69418;DHT22;56610;48.872;2.400;2023-02-07T10:53:41;7.90;99.90
69418;DHT22;56610;48.872;2.400;2023-02-07T10:56:21;8.10;99.90
69418;DHT22;56610;48.872;2.400;2023-02-07T10:58:47;8.40;99.90
69418;DHT22;56610;48.872;2.400;2023-02-07T11:01:32;8.60;99.90
69418;DHT22;56610;48.872;2.400;2023-02-07T11:03:58;8.80;99.90
69418;DHT22;56610;48.872;2.400;2023-02-07T11:06:29;9.00;99.90
69418;DHT22;56610;48.872;2.400;2023-02-07T11:11:37;9.80;99.90
69418;DHT22;56610;48.872;2.400;2023-02-07T11:14:07;10.10;99.90
69418;DHT22;56610;48.872;2.400;2023-02-07T11:16:43;10.40;99.90
69418;DHT22;56610;48.872;2.400;2023-02-07T11:19:16;10.60;99.90
69418;DHT22;56610;48.872;2.400;2023-02-07T11:21:44;10.90;99.90
69418;DHT22;56610;48.872;2.400;2023-02-07T11:29:25;11.80;99.40
69418;DHT22;56610;48.872;2.400;2023-02-07T11:31:53;12.00;98.70
69418;DHT22;56610;48.872;2.400;2023-02-07T11:37:30;12.60;97.90
69418;DHT22;56610;48.872;2.400;2023-02-07T11:43:05;13.50;96.20
69418;DHT22;56610;48.872;2.400;2023-02-07T11:45:33;13.60;95.60
69418;DHT22;56610;48.872;2.400;2023-02-07T11:47:59;13.70;95.90
69418;DHT22;56610;48.872;2.400;2023-02-07T11:50:39;13.70;95.20
69418;DHT22;56610;48.872;2.400;2023-02-07T11:53:18;13.90;94.80
69418;DHT22;56610;48.872;2.400;2023-02-07T11:55:48;14.20;95.20
69418;DHT22;56610;48.872;2.400;2023-02-07T12:00:54;14.30;94.20
69418;DHT22;56610;48.872;2.400;2023-02-07T12:03:25;14.50;94.10
69418;DHT22;56610;48.872;2.400;2023-02-07T12:05:57;14.70;93.70
69418;DHT22;56610;48.872;2.400;2023-02-07T12:08:27;15.10;93.30
69418;DHT22;56610;48.872;2.400;2023-02-07T12:11:05;15.30;92.40
69418;DHT22;56610;48.872;2.400;2023-02-07T12:13:39;15.20;92.30
69418;DHT22;56610;48.872;2.400;2023-02-07T12:16:27;15.30;92.40
69418;DHT22;56610;48.872;2.400;2023-02-07T12:19:04;15.40;91.90
69418;DHT22;56610;48.872;2.400;2023-02-07T12:22:09;15.70;91.50
69418;DHT22;56610;48.872;2.400;2023-02-07T12:24:42;15.60;91.20
69418;DHT22;56610;48.872;2.400;2023-02-07T12:27:18;15.90;90.20
69418;DHT22;56610;48.872;2.400;2023-02-07T12:30:09;15.80;89.70
69418;DHT22;56610;48.872;2.400;2023-02-07T12:35:48;15.70;89.60
69418;DHT22;56610;48.872;2.400;2023-02-07T12:38:40;15.10;90.50
69418;DHT22;56610;48.872;2.400;2023-02-07T12:41:36;14.80;90.70
69418;DHT22;56610;48.872;2.400;2023-02-07T12:44:25;14.90;90.40
69418;DHT22;56610;48.872;2.400;2023-02-07T12:54:42;15.10;90.70
69418;DHT22;56610;48.872;2.400;2023-02-07T13:00:11;15.40;90.20
69418;DHT22;56610;48.872;2.400;2023-02-07T13:13:47;14.00;91.40
69418;DHT22;56610;48.872;2.400;2023-02-07T13:22:01;13.90;91.10
69418;DHT22;56610;48.872;2.400;2023-02-07T13:24:31;13.80;90.70
69418;DHT22;56610;48.872;2.400;2023-02-07T13:27:01;14.00;91.00
69418;DHT22;56610;48.872;2.400;2023-02-07T13:29:31;13.90;91.40
69418;DHT22;56610;48.872;2.400;2023-02-07T13:32:02;14.10;91.30
69418;DHT22;56610;48.872;2.400;2023-02-07T13:34:33;14.30;91.30
69418;DHT22;56610;48.872;2.400;2023-02-07T13:37:01;14.30;91.20
69418;DHT22;56610;48.872;2.400;2023-02-07T13:47:50;14.30;91.00
69418;DHT22;56610;48.872;2.400;2023-02-07T13:50:38;14.30;91.20
69418;DHT22;56610;48.872;2.400;2023-02-07T13:56:11;14.40;91.10
69418;DHT22;56610;48.872;2.400;2023-02-07T13:58:57;14.40;90.70
69418;DHT22;56610;48.872;2.400;2023-02-07T14:01:53;14.60;91.00
69418;DHT22;56610;48.872;2.400;2023-02-07T14:04:22;14.60;90.80
69418;DHT22;56610;48.872;2.400;2023-02-07T14:06:59;14.70;90.60
69418;DHT22;56610;48.872;2.400;2023-02-07T14:09:41;14.70;90.40
69418;DHT22;56610;48.872;2.400;2023-02-07T14:12:17;15.00;90.20
69418;DHT22;56610;48.872;2.400;2023-02-07T14:14:43;15.10;90.00
69418;DHT22;56610;48.872;2.400;2023-02-07T14:20:03;15.00;90.00
69418;DHT22;56610;48.872;2.400;2023-02-07T14:28:05;14.90;89.90
69418;DHT22;56610;48.872;2.400;2023-02-07T14:30:29;14.80;89.70
69418;DHT22;56610;48.872;2.400;2023-02-07T14:36:18;15.10;89.60
69418;DHT22;56610;48.872;2.400;2023-02-07T14:41:51;15.10;89.50
69418;DHT22;56610;48.872;2.400;2023-02-07T14:44:32;15.20;89.30
69418;DHT22;56610;48.872;2.400;2023-02-07T14:46:59;15.40;88.60
69418;DHT22;56610;48.872;2.400;2023-02-07T14:49:42;15.50;87.70
69418;DHT22;56610;48.872;2.400;2023-02-07T14:52:14;15.40;88.10
69418;DHT22;56610;48.872;2.400;2023-02-07T14:54:46;15.00;88.20
69418;DHT22;56610;48.872;2.400;2023-02-07T15:00:31;14.40;89.00
69418;DHT22;56610;48.872;2.400;2023-02-07T15:02:56;14.30;89.10
69418;DHT22;56610;48.872;2.400;2023-02-07T15:05:26;14.30;89.20
69418;DHT22;56610;48.872;2.400;2023-02-07T15:08:05;14.30;89.50
69418;DHT22;56610;48.872;2.400;2023-02-07T15:12:59;14.50;89.20
69418;DHT22;56610;48.872;2.400;2023-02-07T15:18:15;14.70;88.90
69418;DHT22;56610;48.872;2.400;2023-02-07T15:20:42;14.80;89.70
69418;DHT22;56610;48.872;2.400;2023-02-07T15:23:13;15.00;89.10
69418;DHT22;56610;48.872;2.400;2023-02-07T15:25:41;14.90;88.50
69418;DHT22;56610;48.872;2.400;2023-02-07T15:28:23;14.70;88.30
69418;DHT22;56610;48.872;2.400;2023-02-07T15:33:37;14.60;88.80
69418;DHT22;56610;48.872;2.400;2023-02-07T15:36:05;14.40;88.80
69418;DHT22;56610;48.872;2.400;2023-02-07T15:38:31;14.50;88.50
69418;DHT22;56610;48.872;2.400;2023-02-07T15:40:57;14.70;89.00
69418;DHT22;56610;48.872;2.400;2023-02-07T15:43:31;14.70;89.10
69418;DHT22;56610;48.872;2.400;2023-02-07T15:46:09;14.80;89.00
69418;DHT22;56610;48.872;2.400;2023-02-07T15:48:49;15.00;88.90
69418;DHT22;56610;48.872;2.400;2023-02-07T15:51:17;15.10;88.30
69418;DHT22;56610;48.872;2.400;2023-02-07T15:53:48;15.00;88.20
69418;DHT22;56610;48.872;2.400;2023-02-07T15:56:15;15.00;88.90
69418;DHT22;56610;48.872;2.400;2023-02-07T15:58:41;14.80;88.00
69418;DHT22;56610;48.872;2.400;2023-02-07T16:01:15;14.90;88.30
69418;DHT22;56610;48.872;2.400;2023-02-07T16:03:43;14.60;88.60
69418;DHT22;56610;48.872;2.400;2023-02-07T16:06:20;14.10;89.20
69418;DHT22;56610;48.872;2.400;2023-02-07T16:08:48;13.80;90.20
69418;DHT22;56610;48.872;2.400;2023-02-07T16:13:59;13.40;90.80
69418;DHT22;56610;48.872;2.400;2023-02-07T16:16:26;13.20;90.80
69418;DHT22;56610;48.872;2.400;2023-02-07T16:19:07;13.10;91.20
69418;DHT22;56610;48.872;2.400;2023-02-07T16:21:40;12.80;91.10
69418;DHT22;56610;48.872;2.400;2023-02-07T16:24:33;12.60;91.40
69418;DHT22;56610;48.872;2.400;2023-02-07T16:26:59;12.50;91.70
69418;DHT22;56610;48.872;2.400;2023-02-07T16:29:25;12.40;91.90
69418;DHT22;56610;48.872;2.400;2023-02-07T16:31:52;12.40;92.30
69418;DHT22;56610;48.872;2.400;2023-02-07T16:34:19;12.50;92.30
69418;DHT22;56610;48.872;2.400;2023-02-07T16:36:53;12.50;92.30
69418;DHT22;56610;48.872;2.400;2023-02-07T16:39:20;12.50;92.50
69418;DHT22;56610;48.872;2.400;2023-02-07T16:41:56;12.60;92.30
69418;DHT22;56610;48.872;2.400;2023-02-07T16:44:25;12.40;92.40
69418;DHT22;56610;48.872;2.400;2023-02-07T16:46:53;12.00;92.80
69418;DHT22;56610;48.872;2.400;2023-02-07T16:49:23;11.70;93.00
69418;DHT22;56610;48.872;2.400;2023-02-07T16:51:50;11.50;93.40
69418;DHT22;56610;48.872;2.400;2023-02-07T16:54:16;11.20;93.70
69418;DHT22;56610;48.872;2.400;2023-02-07T16:56:42;11.20;94.10
69418;DHT22;56610;48.872;2.400;2023-02-07T16:59:13;11.30;94.00
69418;DHT22;56610;48.872;2.400;2023-02-07T17:01:39;11.40;94.30
69418;DHT22;56610;48.872;2.400;2023-02-07T17:04:04;11.50;94.20
69418;DHT22;56610;48.872;2.400;2023-02-07T17:06:30;11.60;94.10
69418;DHT22;56610;48.872;2.400;2023-02-07T17:08:56;11.70;93.90
69418;DHT22;56610;48.872;2.400;2023-02-07T17:11:23;11.70;94.10
69418;DHT22;56610;48.872;2.400;2023-02-07T17:13:51;11.60;94.20
69418;DHT22;56610;48.872;2.400;2023-02-07T17:16:16;11.40;94.40
69418;DHT22;56610;48.872;2.400;2023-02-07T17:18:42;11.60;94.30
69418;DHT22;56610;48.872;2.400;2023-02-07T17:21:08;11.70;94.30
69418;DHT22;56610;48.872;2.400;2023-02-07T17:23:35;11.60;94.20
69418;DHT22;56610;48.872;2.400;2023-02-07T17:26:02;11.60;94.10
69418;DHT22;56610;48.872;2.400;2023-02-07T17:28:28;11.60;94.50
69418;DHT22;56610;48.872;2.400;2023-02-07T17:30:54;11.70;94.30
69418;DHT22;56610;48.872;2.400;2023-02-07T17:33:21;11.80;94.20
69418;DHT22;56610;48.872;2.400;2023-02-07T17:35:46;11.80;93.90
69418;DHT22;56610;48.872;2.400;2023-02-07T17:38:12;11.60;94.20
69418;DHT22;56610;48.872;2.400;2023-02-07T17:40:39;11.80;94.20
69418;DHT22;56610;48.872;2.400;2023-02-07T17:43:05;11.80;94.20
69418;DHT22;56610;48.872;2.400;2023-02-07T17:45:34;11.80;94.00
69418;DHT22;56610;48.872;2.400;2023-02-07T17:48:00;11.80;94.10
69418;DHT22;56610;48.872;2.400;2023-02-07T17:50:34;11.70;94.20
69418;DHT22;56610;48.872;2.400;2023-02-07T17:53:00;11.70;94.20
69418;DHT22;56610;48.872;2.400;2023-02-07T17:55:27;11.60;94.30
69418;DHT22;56610;48.872;2.400;2023-02-07T17:57:53;11.40;94.50
69418;DHT22;56610;48.872;2.400;2023-02-07T18:00:20;11.30;94.70
69418;DHT22;56610;48.872;2.400;2023-02-07T18:02:46;11.30;94.70
69418;DHT22;56610;48.872;2.400;2023-02-07T18:05:12;11.30;94.60
69418;DHT22;56610;48.872;2.400;2023-02-07T18:07:38;11.30;94.70
69418;DHT22;56610;48.872;2.400;2023-02-07T18:10:05;11.30;94.80
69418;DHT22;56610;48.872;2.400;2023-02-07T18:12:32;11.20;94.80
69418;DHT22;56610;48.872;2.400;2023-02-07T18:14:57;11.10;95.00
69418;DHT22;56610;48.872;2.400;2023-02-07T18:17:23;10.90;95.10
69418;DHT22;56610;48.872;2.400;2023-02-07T18:19:50;10.80;95.40